Time;durP1;ratioP1;P1;durP2;ratioP2;P2;SDS_P1;SDS_P2;PMS_P1;PMS_P2;Temp;Humidity;BMP_temperature;BMP_pressure;BME280_temperature;BME280_humidity;BME280_pressure;Samples;Min_cycle;Max_cycle;Signal;HPM_P1;HPM_P2
2021/01/03 00:00:18;;;;;;;26.50;17.70;;;2.30;99.90;;;;;;4984693;28;20105;-78
2021/01/03 00:02:45;;;;;;;26.13;18.58;;;2.30;99.90;;;;;;4987575;28;20381;-78
2021/01/03 00:05:12;;;;;;;29.40;19.10;;;2.40;99.90;;;;;;4988006;28;20433;-78
2021/01/03 00:07:38;;;;;;;34.72;22.08;;;2.50;99.90;;;;;;4987270;28;20464;-78
2021/01/03 00:10:06;;;;;;;33.33;19.65;;;2.40;99.90;;;;;;4987699;28;20034;-78
2021/01/03 00:12:32;;;;;;;25.63;16.80;;;2.40;99.90;;;;;;4986825;28;20056;-78
2021/01/03 00:14:58;;;;;;;22.80;15.30;;;2.40;99.90;;;;;;4987723;28;20038;-78
2021/01/03 00:17:23;;;;;;;23.95;15.50;;;2.30;99.90;;;;;;4979148;28;20038;-78
2021/01/03 00:19:49;;;;;;;24.83;15.93;;;2.20;99.90;;;;;;4968226;28;20042;-78
2021/01/03 00:22:15;;;;;;;24.20;15.02;;;2.20;99.90;;;;;;4973197;28;20596;-78
2021/01/03 00:24:40;;;;;;;21.88;15.00;;;2.20;99.90;;;;;;4988752;28;20528;-78
2021/01/03 00:27:06;;;;;;;24.38;12.65;;;2.20;99.90;;;;;;4982048;28;20030;-78
2021/01/03 00:29:32;;;;;;;23.30;16.08;;;2.10;99.90;;;;;;4980051;28;20035;-78
2021/01/03 00:32:00;;;;;;;23.40;13.18;;;2.20;99.90;;;;;;4986467;28;20027;-78
2021/01/03 00:34:27;;;;;;;22.30;14.95;;;2.10;99.90;;;;;;4987108;28;20474;-78
2021/01/03 00:36:52;;;;;;;18.50;11.80;;;2.10;99.90;;;;;;4987089;28;20027;-78
2021/01/03 00:39:18;;;;;;;18.60;12.98;;;2.00;99.90;;;;;;4985935;28;20084;-78
2021/01/03 00:41:51;;;;;;;19.00;12.35;;;2.00;99.90;;;;;;4986799;28;20117;-78
2021/01/03 00:44:18;;;;;;;21.70;13.07;;;2.10;99.90;;;;;;4986226;28;20066;-78
2021/01/03 00:46:44;;;;;;;22.10;14.18;;;2.10;99.90;;;;;;4987020;28;20429;-78
2021/01/03 00:49:10;;;;;;;19.55;13.18;;;2.10;99.90;;;;;;4986852;28;20487;-78
2021/01/03 00:51:35;;;;;;;20.58;14.90;;;2.10;99.90;;;;;;4987890;28;20035;-78
2021/01/03 00:54:02;;;;;;;20.67;13.48;;;2.10;99.90;;;;;;4986351;28;20124;-78
2021/01/03 00:56:27;;;;;;;22.15;13.65;;;2.10;99.90;;;;;;4987326;28;20040;-78
2021/01/03 00:58:53;;;;;;;20.63;11.95;;;2.10;99.90;;;;;;4986863;28;20469;-77
2021/01/03 01:01:20;;;;;;;22.25;14.48;;;2.00;99.90;;;;;;4987461;28;20030;-78
2021/01/03 01:03:46;;;;;;;22.63;14.43;;;2.10;99.90;;;;;;4986424;28;20086;-78
2021/01/03 01:06:11;;;;;;;23.58;14.68;;;2.10;99.90;;;;;;4988414;28;20026;-78
2021/01/03 01:08:37;;;;;;;25.88;15.00;;;2.10;99.90;;;;;;4986741;28;20121;-78
2021/01/03 01:11:08;;;;;;;21.40;13.52;;;2.10;99.90;;;;;;4988399;28;20025;-78
2021/01/03 01:13:34;;;;;;;19.50;14.13;;;2.10;99.90;;;;;;4986380;28;20042;-78
2021/01/03 01:16:00;;;;;;;17.63;12.95;;;2.20;99.90;;;;;;4988087;28;20026;-78
2021/01/03 01:18:26;;;;;;;19.92;13.07;;;2.20;99.90;;;;;;4986065;28;20034;-78
2021/01/03 01:20:52;;;;;;;18.92;11.32;;;2.10;99.90;;;;;;4987277;28;20026;-78
2021/01/03 01:23:17;;;;;;;18.88;11.52;;;2.20;99.90;;;;;;4984423;28;20030;-78
2021/01/03 01:25:43;;;;;;;19.60;13.32;;;2.10;99.90;;;;;;4987655;28;20492;-78
2021/01/03 01:28:09;;;;;;;20.30;12.70;;;2.10;99.90;;;;;;4987765;28;20030;-78
2021/01/03 01:30:37;;;;;;;16.52;11.05;;;2.10;99.90;;;;;;4986485;28;20034;-78
2021/01/03 01:33:04;;;;;;;18.00;11.93;;;2.10;99.90;;;;;;4986308;28;20047;-78
2021/01/03 01:35:31;;;;;;;19.25;12.85;;;2.00;99.90;;;;;;4986580;28;20050;-78
2021/01/03 01:37:58;;;;;;;19.75;12.68;;;1.90;99.90;;;;;;4988159;28;20364;-78
2021/01/03 01:40:31;;;;;;;21.20;12.15;;;2.00;99.90;;;;;;4986316;28;20038;-78
2021/01/03 01:42:56;;;;;;;20.50;13.20;;;1.90;99.90;;;;;;4987780;28;20109;-78
2021/01/03 01:45:27;;;;;;;18.95;12.27;;;1.90;99.90;;;;;;4985896;28;20045;-78
2021/01/03 01:47:59;;;;;;;19.92;14.05;;;1.90;99.90;;;;;;4987485;28;20110;-78
2021/01/03 01:50:32;;;;;;;20.98;13.20;;;2.00;99.90;;;;;;4986119;28;20359;-78
2021/01/03 01:53:01;;;;;;;18.13;11.38;;;2.00;99.90;;;;;;4987576;28;20047;-78
2021/01/03 01:55:35;;;;;;;19.00;11.73;;;2.00;99.90;;;;;;4985392;28;20054;-78
2021/01/03 01:58:17;;;;;;;19.02;12.80;;;2.00;99.90;;;;;;4987321;28;20046;-78
2021/01/03 02:00:47;;;;;;;21.05;14.27;;;1.90;99.90;;;;;;4985881;28;20030;-78
2021/01/03 02:03:24;;;;;;;20.88;13.90;;;1.90;99.90;;;;;;4987103;28;20084;-78
2021/01/03 02:06:04;;;;;;;18.75;13.55;;;1.90;99.90;;;;;;4985752;28;20057;-78
2021/01/03 02:08:45;;;;;;;18.38;12.60;;;2.00;99.90;;;;;;4986367;28;20474;-78
2021/01/03 02:11:14;;;;;;;17.95;10.75;;;1.90;99.90;;;;;;4984694;28;20501;-77
2021/01/03 02:13:44;;;;;;;19.23;13.25;;;1.90;99.90;;;;;;4987121;28;20089;-78
2021/01/03 02:16:15;;;;;;;19.77;12.55;;;2.00;99.90;;;;;;4970843;28;20022;-78
2021/01/03 02:18:44;;;;;;;21.15;13.90;;;1.90;99.90;;;;;;4991010;28;20050;-78
2021/01/03 02:21:12;;;;;;;20.75;14.35;;;1.90;99.90;;;;;;4989549;28;20030;-78
2021/01/03 02:23:47;;;;;;;20.20;12.75;;;1.90;99.90;;;;;;4990951;28;20509;-78
2021/01/03 02:26:14;;;;;;;20.48;12.35;;;1.90;99.90;;;;;;4989654;28;20031;-78
2021/01/03 02:28:43;;;;;;;19.80;13.88;;;1.90;99.90;;;;;;4991139;28;20070;-78
2021/01/03 02:31:17;;;;;;;20.17;13.57;;;1.90;99.90;;;;;;4990591;28;20114;-78
2021/01/03 02:33:47;;;;;;;18.95;13.85;;;1.80;99.90;;;;;;4971018;28;20382;-78
2021/01/03 02:36:20;;;;;;;21.90;14.15;;;1.80;99.90;;;;;;4970432;28;20057;-78
2021/01/03 02:39:06;;;;;;;18.00;12.35;;;1.90;99.90;;;;;;4990097;28;20481;-78
2021/01/03 02:41:32;;;;;;;21.38;12.45;;;1.90;99.90;;;;;;4990921;28;20030;-78
2021/01/03 02:43:58;;;;;;;22.67;13.65;;;1.90;99.90;;;;;;4990572;28;20078;-78
2021/01/03 02:46:24;;;;;;;19.52;14.38;;;1.90;99.90;;;;;;4990139;28;20026;-78
2021/01/03 02:48:49;;;;;;;21.73;15.02;;;1.90;99.90;;;;;;4990045;28;20089;-78
2021/01/03 02:51:15;;;;;;;20.58;14.50;;;1.80;99.90;;;;;;4989183;28;20041;-78
2021/01/03 02:53:40;;;;;;;22.35;15.20;;;1.90;99.90;;;;;;4989343;28;20157;-78
2021/01/03 02:56:06;;;;;;;19.67;14.18;;;1.90;99.90;;;;;;4989944;28;20032;-78
2021/01/03 02:58:32;;;;;;;25.23;14.43;;;1.90;99.90;;;;;;4989303;28;20053;-78
2021/01/03 03:00:57;;;;;;;23.27;14.00;;;1.90;99.90;;;;;;4989928;28;20026;-78
2021/01/03 03:03:23;;;;;;;21.98;14.57;;;1.90;99.90;;;;;;4988730;28;20030;-78
2021/01/03 03:05:48;;;;;;;21.42;14.95;;;2.00;99.90;;;;;;4989973;28;20026;-78
2021/01/03 03:08:14;;;;;;;20.90;12.98;;;2.00;99.90;;;;;;4988917;28;20113;-78
2021/01/03 03:10:40;;;;;;;18.15;11.95;;;2.00;99.90;;;;;;4990447;28;20630;-78
2021/01/03 03:13:05;;;;;;;21.58;15.02;;;2.00;99.90;;;;;;4988736;28;20042;-78
2021/01/03 03:15:32;;;;;;;22.25;15.18;;;2.00;99.90;;;;;;4990126;28;20247;-78
2021/01/03 03:17:58;;;;;;;21.10;15.60;;;2.10;99.90;;;;;;4988545;28;20031;-78
2021/01/03 03:20:23;;;;;;;23.27;15.30;;;2.10;99.90;;;;;;4990238;28;20038;-78
2021/01/03 03:22:49;;;;;;;21.90;13.65;;;2.10;99.90;;;;;;4988971;28;20424;-78
2021/01/03 03:25:16;;;;;;;21.90;13.70;;;2.00;99.90;;;;;;4989937;28;20509;-78
2021/01/03 03:27:41;;;;;;;22.02;13.88;;;1.90;99.90;;;;;;4988705;28;20046;-78
2021/01/03 03:30:10;;;;;;;20.90;14.05;;;1.90;99.90;;;;;;4990461;28;20366;-78
2021/01/03 03:32:35;;;;;;;20.75;12.52;;;1.90;99.90;;;;;;4989369;28;20041;-78
2021/01/03 03:35:01;;;;;;;19.55;14.15;;;1.90;99.90;;;;;;4988904;28;20068;-77
2021/01/03 03:37:27;;;;;;;19.23;15.00;;;2.00;99.90;;;;;;4989158;28;20108;-78
2021/01/03 03:39:53;;;;;;;21.55;14.77;;;2.00;99.90;;;;;;4988923;28;20129;-78
2021/01/03 03:42:18;;;;;;;20.65;14.93;;;2.00;99.90;;;;;;4989136;28;20031;-78
2021/01/03 03:44:44;;;;;;;21.48;12.32;;;2.10;99.90;;;;;;4988713;28;20030;-78
2021/01/03 03:47:10;;;;;;;21.90;14.13;;;2.00;99.90;;;;;;4989284;28;20030;-79
2021/01/03 03:49:36;;;;;;;19.00;12.38;;;1.90;99.90;;;;;;4988157;28;20092;-78
2021/01/03 03:52:05;;;;;;;23.25;15.05;;;1.80;99.90;;;;;;4989212;28;20791;-78
2021/01/03 03:54:32;;;;;;;20.90;15.52;;;1.90;99.90;;;;;;4987618;28;20066;-78
2021/01/03 03:57:01;;;;;;;21.73;13.55;;;1.80;99.90;;;;;;4989482;28;20121;-78
2021/01/03 03:59:27;;;;;;;23.13;15.55;;;1.70;99.90;;;;;;4987710;28;20070;-78
2021/01/03 04:01:53;;;;;;;24.23;16.02;;;1.80;99.90;;;;;;4989112;28;20066;-78
2021/01/03 04:04:20;;;;;;;21.30;14.15;;;1.80;99.90;;;;;;4987844;28;20034;-78
2021/01/03 04:06:46;;;;;;;22.90;14.02;;;1.80;99.90;;;;;;4989804;28;20042;-78
2021/01/03 04:09:13;;;;;;;29.45;17.90;;;1.70;99.90;;;;;;4987360;28;20544;-78
2021/01/03 04:11:44;;;;;;;23.42;15.18;;;1.70;99.90;;;;;;4988218;28;20161;-78
2021/01/03 04:14:11;;;;;;;23.50;14.70;;;1.80;99.90;;;;;;4988198;28;20030;-78
2021/01/03 04:16:45;;;;;;;24.75;16.50;;;1.80;99.90;;;;;;4986593;28;20057;-78
2021/01/03 04:19:10;;;;;;;24.98;16.25;;;1.80;99.90;;;;;;4987440;28;20030;-78
2021/01/03 04:21:36;;;;;;;23.17;16.92;;;1.80;99.90;;;;;;4988613;28;20084;-78
2021/01/03 04:24:01;;;;;;;27.10;17.08;;;1.80;99.90;;;;;;4987296;28;20106;-78
2021/01/03 04:26:27;;;;;;;25.80;17.00;;;1.80;99.90;;;;;;4989292;28;20125;-78
2021/01/03 04:28:53;;;;;;;27.05;17.25;;;1.80;99.90;;;;;;4986795;28;20033;-78
2021/01/03 04:31:19;;;;;;;26.85;18.77;;;1.70;99.90;;;;;;4988609;28;20080;-78
2021/01/03 04:33:45;;;;;;;25.63;17.33;;;1.80;99.90;;;;;;4987351;28;20525;-78
2021/01/03 04:36:18;;;;;;;26.85;17.80;;;1.90;99.90;;;;;;4987735;28;20038;-78
2021/01/03 04:38:44;;;;;;;24.98;17.58;;;1.80;99.90;;;;;;4987420;28;20587;-78
2021/01/03 04:41:12;;;;;;;26.73;17.42;;;1.80;99.90;;;;;;4987778;28;20537;-79
2021/01/03 04:43:38;;;;;;;31.58;19.50;;;1.80;99.90;;;;;;4987912;28;20053;-78
2021/01/03 04:46:10;;;;;;;25.75;18.33;;;1.80;99.90;;;;;;4986840;28;20477;-78
2021/01/03 04:48:38;;;;;;;27.83;18.00;;;1.80;99.90;;;;;;4984952;28;20026;-77
2021/01/03 04:51:25;;;;;;;26.80;17.42;;;1.90;99.90;;;;;;4984863;28;20093;-78
2021/01/03 04:53:54;;;;;;;27.73;18.25;;;1.90;99.90;;;;;;4984831;28;20105;-78
2021/01/03 04:56:40;;;;;;;28.40;18.75;;;1.80;99.90;;;;;;4985164;28;20041;-78
2021/01/03 04:59:21;;;;;;;27.95;17.95;;;1.80;99.90;;;;;;4983300;28;20035;-79
2021/01/03 05:02:04;;;;;;;28.80;19.30;;;1.90;99.90;;;;;;4981693;28;20046;-78
2021/01/03 05:04:52;;;;;;;23.98;15.77;;;1.90;99.90;;;;;;4987622;28;20034;-78
2021/01/03 05:07:24;;;;;;;27.80;19.27;;;1.90;99.90;;;;;;4969177;28;20118;-78
2021/01/03 05:09:52;;;;;;;31.10;20.58;;;1.90;99.90;;;;;;4967125;28;20094;-78
2021/01/03 05:12:25;;;;;;;27.48;18.88;;;1.90;99.90;;;;;;4984383;28;20132;-78
2021/01/03 05:15:11;;;;;;;31.65;20.20;;;1.80;99.90;;;;;;4983675;28;20024;-78
2021/01/03 05:17:37;;;;;;;34.20;20.95;;;1.80;99.90;;;;;;4983021;28;20360;-78
2021/01/03 05:20:04;;;;;;;33.90;18.83;;;1.80;99.90;;;;;;4985830;28;20092;-79
2021/01/03 05:22:36;;;;;;;30.70;19.92;;;1.80;99.90;;;;;;4968318;28;20050;-79
2021/01/03 05:25:04;;;;;;;23.75;15.48;;;1.70;99.90;;;;;;4983817;28;20259;-79
2021/01/03 05:27:30;;;;;;;31.23;19.15;;;1.70;99.90;;;;;;4983730;28;20042;-78
2021/01/03 05:30:17;;;;;;;28.42;17.73;;;1.80;99.90;;;;;;4983495;28;20549;-78
2021/01/03 05:32:44;;;;;;;30.77;18.40;;;1.70;99.90;;;;;;4982427;28;20089;-78
2021/01/03 05:35:27;;;;;;;28.92;17.88;;;1.70;99.90;;;;;;4982790;28;20108;-78
2021/01/03 05:37:55;;;;;;;30.83;18.77;;;1.70;99.90;;;;;;4983500;28;20034;-78
2021/01/03 05:40:31;;;;;;;34.22;19.90;;;1.70;99.90;;;;;;4982818;28;20029;-78
2021/01/03 05:43:20;;;;;;;25.27;15.27;;;1.70;99.90;;;;;;4984296;28;20461;-78
2021/01/03 05:46:16;;;;;;;27.15;19.35;;;1.70;99.90;;;;;;4982768;28;20677;-78
2021/01/03 05:48:46;;;;;;;27.50;16.38;;;1.70;99.90;;;;;;4980476;28;20030;-78
2021/01/03 05:51:34;;;;;;;27.52;17.35;;;1.70;99.90;;;;;;4982303;28;20030;-78
2021/01/03 05:54:06;;;;;;;28.75;18.73;;;1.70;99.90;;;;;;4982303;28;20050;-78
2021/01/03 05:56:35;;;;;;;28.60;16.40;;;1.80;99.90;;;;;;4982923;28;20077;-78
2021/01/03 05:59:01;;;;;;;28.95;19.70;;;1.80;99.90;;;;;;4982924;28;20383;-78
2021/01/03 06:01:32;;;;;;;30.20;18.60;;;1.80;99.90;;;;;;4983834;28;20050;-78
2021/01/03 06:04:03;;;;;;;29.42;19.45;;;1.80;99.90;;;;;;4985409;28;20029;-78
2021/01/03 06:06:47;;;;;;;25.52;18.60;;;1.90;99.90;;;;;;4985664;28;20389;-78
2021/01/03 06:09:19;;;;;;;28.15;16.73;;;1.80;99.90;;;;;;4986403;28;20033;-79
2021/01/03 06:11:58;;;;;;;32.42;17.23;;;1.80;99.90;;;;;;4977238;28;20038;-79
2021/01/03 06:14:26;;;;;;;27.83;17.83;;;1.80;99.90;;;;;;4980410;28;20520;-78
2021/01/03 06:16:51;;;;;;;31.55;20.10;;;1.80;99.90;;;;;;4980542;28;20030;-78
2021/01/03 06:19:26;;;;;;;27.40;17.77;;;1.90;99.90;;;;;;4975397;28;20055;-79
2021/01/03 06:21:53;;;;;;;30.75;19.05;;;1.80;99.90;;;;;;4977022;28;20045;-79
2021/01/03 06:24:23;;;;;;;37.53;21.83;;;1.80;99.90;;;;;;4983756;28;20026;-78
2021/01/03 06:27:01;;;;;;;39.05;21.13;;;1.90;99.90;;;;;;4978409;28;20034;-79
2021/01/03 06:29:38;;;;;;;41.35;23.10;;;1.80;99.90;;;;;;4984727;28;20800;-78
2021/01/03 06:32:31;;;;;;;32.90;20.40;;;1.90;99.90;;;;;;4981666;28;20038;-78
2021/01/03 06:35:21;;;;;;;31.60;21.38;;;1.80;99.90;;;;;;4982615;28;20059;-78
2021/01/03 06:38:21;;;;;;;38.90;23.48;;;1.90;99.90;;;;;;4984238;28;20053;-78
2021/01/03 06:41:12;;;;;;;32.22;22.25;;;1.90;99.90;;;;;;4973038;28;20432;-78
2021/01/03 06:43:44;;;;;;;35.80;21.83;;;1.90;99.90;;;;;;4975470;28;20046;-79
2021/01/03 06:46:37;;;;;;;32.75;20.77;;;1.90;99.90;;;;;;4976861;28;20476;-79
2021/01/03 06:49:11;;;;;;;31.90;21.38;;;1.90;99.90;;;;;;4961228;28;20026;-79
2021/01/03 06:52:01;;;;;;;31.13;21.95;;;2.00;99.90;;;;;;4982360;28;20037;-79
2021/01/03 06:55:04;;;;;;;30.25;21.52;;;2.10;99.90;;;;;;4979825;28;20185;-76
2021/01/03 06:57:49;;;;;;;28.23;20.60;;;2.10;99.90;;;;;;4979362;28;20038;-76
2021/01/03 07:00:18;;;;;;;33.53;22.08;;;2.10;99.90;;;;;;4982009;28;20026;-76
2021/01/03 07:03:17;;;;;;;31.15;21.15;;;2.10;99.90;;;;;;4988453;28;20425;-76
2021/01/03 07:06:05;;;;;;;28.08;20.17;;;2.00;99.90;;;;;;4986420;28;20664;-76
2021/01/03 07:08:49;;;;;;;35.22;21.75;;;2.00;99.90;;;;;;4988467;28;20057;-76
2021/01/03 07:11:36;;;;;;;30.63;21.33;;;2.00;99.90;;;;;;4987516;28;20141;-78
2021/01/03 07:14:04;;;;;;;36.28;23.20;;;2.00;99.90;;;;;;4977954;28;20398;-78
2021/01/03 07:16:49;;;;;;;36.90;23.27;;;2.00;99.90;;;;;;4988311;28;20129;-78
2021/01/03 07:19:36;;;;;;;29.65;20.65;;;2.00;99.90;;;;;;4982347;28;20030;-78
2021/01/03 07:22:13;;;;;;;33.97;22.95;;;1.90;99.90;;;;;;4984833;28;20450;-78
2021/01/03 07:24:50;;;;;;;35.15;23.10;;;2.00;99.90;;;;;;4982543;28;20038;-78
2021/01/03 07:27:24;;;;;;;30.88;21.58;;;2.00;99.90;;;;;;4978823;28;20039;-78
2021/01/03 07:30:03;;;;;;;33.15;21.92;;;2.10;99.90;;;;;;4986956;28;20104;-78
2021/01/03 07:32:37;;;;;;;26.92;19.10;;;2.10;99.90;;;;;;4986985;28;20581;-78
2021/01/03 07:35:28;;;;;;;27.63;19.20;;;2.10;99.90;;;;;;4980633;28;20558;-78
2021/01/03 07:38:25;;;;;;;26.15;18.67;;;2.10;99.90;;;;;;4979458;28;20035;-78
2021/01/03 07:40:55;;;;;;;32.70;20.65;;;2.10;99.90;;;;;;4986413;28;20402;-79
2021/01/03 07:43:22;;;;;;;34.78;21.45;;;2.10;99.90;;;;;;4988054;28;20106;-78
2021/01/03 07:45:48;;;;;;;35.88;20.33;;;2.00;99.90;;;;;;4983857;28;20068;-79
2021/01/03 07:48:36;;;;;;;29.35;20.15;;;2.00;99.90;;;;;;4984712;28;20050;-78
2021/01/03 07:51:04;;;;;;;28.67;19.40;;;1.90;99.90;;;;;;4987480;28;20084;-79
2021/01/03 07:53:35;;;;;;;33.55;20.92;;;2.00;99.90;;;;;;4984667;28;20800;-78
2021/01/03 07:56:17;;;;;;;32.38;20.33;;;1.90;99.90;;;;;;4988654;28;20038;-79
2021/01/03 07:58:43;;;;;;;30.20;21.08;;;2.00;99.90;;;;;;4983904;28;20026;-79
2021/01/03 08:01:15;;;;;;;32.25;20.98;;;2.00;99.90;;;;;;4971244;28;20053;-78
2021/01/03 08:03:41;;;;;;;32.60;17.08;;;2.00;99.90;;;;;;4986246;28;20034;-78
2021/01/03 08:06:09;;;;;;;30.45;19.55;;;1.90;99.90;;;;;;4983399;28;20081;-79
2021/01/03 08:08:35;;;;;;;31.02;20.52;;;2.00;99.90;;;;;;4984368;28;20494;-79
2021/01/03 08:11:18;;;;;;;33.38;22.02;;;2.10;99.90;;;;;;4985871;28;20057;-79
2021/01/03 08:13:47;;;;;;;29.00;18.98;;;2.10;99.90;;;;;;4986864;28;20026;-78
2021/01/03 08:16:23;;;;;;;31.50;19.15;;;2.00;99.90;;;;;;4988485;28;20031;-79
2021/01/03 08:19:05;;;;;;;32.88;19.73;;;1.90;99.90;;;;;;4963487;28;20503;-79
2021/01/03 08:21:41;;;;;;;27.20;17.38;;;2.00;99.90;;;;;;4986224;28;20385;-78
2021/01/03 08:24:11;;;;;;;28.33;19.90;;;1.90;99.90;;;;;;4985683;28;20046;-79
2021/01/03 08:26:47;;;;;;;29.75;19.27;;;2.00;99.90;;;;;;4988713;28;20037;-79
2021/01/03 08:29:16;;;;;;;32.88;20.75;;;2.00;99.90;;;;;;4988302;28;20034;-78
2021/01/03 08:31:47;;;;;;;32.58;20.98;;;2.00;99.90;;;;;;4985402;28;20141;-78
2021/01/03 08:34:17;;;;;;;28.23;18.63;;;2.00;99.90;;;;;;4980311;28;20157;-79
2021/01/03 08:36:42;;;;;;;29.40;18.95;;;1.90;99.90;;;;;;4978306;28;20534;-79
2021/01/03 08:39:13;;;;;;;27.63;18.73;;;1.90;99.90;;;;;;4984496;28;20588;-79
2021/01/03 08:42:01;;;;;;;29.45;20.17;;;1.90;99.90;;;;;;4983057;28;20027;-79
2021/01/03 08:44:46;;;;;;;26.05;16.33;;;1.90;99.90;;;;;;4982161;28;20516;-78
2021/01/03 08:47:34;;;;;;;32.53;19.23;;;2.00;99.90;;;;;;4981853;28;20062;-79
2021/01/03 08:50:25;;;;;;;29.17;19.48;;;1.90;99.90;;;;;;4968413;28;20315;-78
2021/01/03 08:53:21;;;;;;;29.05;19.00;;;1.90;99.90;;;;;;4984545;28;20044;-79
2021/01/03 08:55:47;;;;;;;30.45;19.33;;;2.00;99.90;;;;;;4964657;28;20058;-78
2021/01/03 08:58:16;;;;;;;31.63;18.52;;;2.00;99.90;;;;;;4987983;28;20517;-79
2021/01/03 09:00:43;;;;;;;28.35;18.17;;;2.00;99.90;;;;;;4982613;28;20034;-78
2021/01/03 09:03:18;;;;;;;29.63;17.75;;;1.90;99.90;;;;;;4983707;28;20137;-79
2021/01/03 09:05:46;;;;;;;32.58;19.73;;;1.90;99.90;;;;;;4984644;28;20037;-78
2021/01/03 09:08:29;;;;;;;32.17;20.33;;;2.00;99.90;;;;;;4986281;28;20541;-78
2021/01/03 09:11:08;;;;;;;;;;;2.10;99.90;;;;;;4982080;28;20109;-78
2021/01/03 09:13:43;;;;;;;24.85;17.13;;;2.10;99.90;;;;;;4986459;28;19914;-79
2021/01/03 09:16:33;;;;;;;24.67;15.20;;;2.00;99.90;;;;;;4983996;28;20061;-78
2021/01/03 09:19:17;;;;;;;24.95;16.80;;;2.10;99.90;;;;;;4986876;28;20034;-78
2021/01/03 09:22:01;;;;;;;29.13;17.33;;;2.10;99.90;;;;;;4984471;28;20034;-78
2021/01/03 09:24:32;;;;;;;26.80;18.38;;;2.10;99.90;;;;;;4984513;28;20276;-78
2021/01/03 09:27:01;;;;;;;23.75;15.30;;;2.10;99.90;;;;;;4980098;28;20031;-78
2021/01/03 09:29:32;;;;;;;26.13;17.67;;;2.10;99.90;;;;;;4982189;28;20068;-79
2021/01/03 09:32:07;;;;;;;26.58;17.95;;;2.10;99.90;;;;;;4972789;28;20030;-78
2021/01/03 09:34:39;;;;;;;27.42;17.80;;;2.20;99.90;;;;;;4984891;28;20490;-78
2021/01/03 09:37:28;;;;;;;27.30;17.52;;;2.20;99.90;;;;;;4983559;28;20034;-78
2021/01/03 09:40:28;;;;;;;26.40;15.18;;;2.10;99.90;;;;;;4984899;28;20035;-78
2021/01/03 09:43:22;;;;;;;26.25;14.98;;;2.10;99.90;;;;;;4981357;28;20046;-79
2021/01/03 09:46:26;;;;;;;22.35;15.45;;;2.10;99.90;;;;;;4968120;28;20745;-78
2021/01/03 09:48:52;;;;;;;21.90;13.05;;;2.10;99.90;;;;;;4945658;29;20645;-78
2021/01/03 09:51:24;;;;;;;25.30;16.25;;;2.10;99.90;;;;;;4974012;28;20450;-79
2021/01/03 09:54:14;;;;;;;24.27;17.35;;;2.20;99.90;;;;;;4985690;28;20046;-78
2021/01/03 09:56:40;;;;;;;23.40;15.85;;;2.30;99.90;;;;;;4984328;28;20066;-79
2021/01/03 09:59:14;;;;;;;25.30;15.93;;;2.30;99.90;;;;;;4985536;28;20042;-79
2021/01/03 10:01:40;;;;;;;23.10;15.75;;;2.40;99.90;;;;;;4984249;28;20027;-79
2021/01/03 10:04:17;;;;;;;27.10;17.58;;;2.50;99.90;;;;;;4986110;28;20077;-79
2021/01/03 10:06:46;;;;;;;25.10;16.58;;;2.40;99.90;;;;;;4983924;28;20038;-78
2021/01/03 10:09:17;;;;;;;21.67;15.50;;;2.40;99.90;;;;;;4984152;28;20092;-78
2021/01/03 10:11:45;;;;;;;23.08;14.38;;;2.50;99.90;;;;;;4985556;28;20062;-78
2021/01/03 10:14:32;;;;;;;24.98;16.23;;;2.40;99.90;;;;;;4984882;28;20093;-78
2021/01/03 10:17:18;;;;;;;22.95;16.50;;;2.40;99.90;;;;;;4982095;28;20027;-78
2021/01/03 10:19:44;;;;;;;21.45;14.82;;;2.50;99.90;;;;;;4981490;28;20382;-78
2021/01/03 10:22:27;;;;;;;24.92;14.48;;;2.60;99.90;;;;;;4987000;28;20050;-78
2021/01/03 10:25:19;;;;;;;23.95;17.50;;;2.50;99.90;;;;;;4986229;28;20062;-78
2021/01/03 10:28:06;;;;;;;24.08;14.85;;;2.60;99.90;;;;;;4982151;28;20401;-78
2021/01/03 10:30:32;;;;;;;25.27;17.40;;;2.60;99.90;;;;;;4984730;28;20045;-78
2021/01/03 10:32:58;;;;;;;24.90;16.60;;;2.60;99.90;;;;;;4981003;28;20111;-77
2021/01/03 10:35:24;;;;;;;23.08;17.00;;;2.60;99.90;;;;;;4984142;28;20034;-77
2021/01/03 10:37:50;;;;;;;26.85;15.65;;;2.60;99.90;;;;;;4971697;28;20027;-77
2021/01/03 10:40:16;;;;;;;23.75;16.33;;;2.60;99.90;;;;;;4984593;28;20065;-77
2021/01/03 10:42:42;;;;;;;24.30;14.05;;;2.60;99.90;;;;;;4981994;28;20030;-77
2021/01/03 10:45:08;;;;;;;24.65;17.85;;;2.60;99.90;;;;;;4971050;28;20037;-77
2021/01/03 10:47:34;;;;;;;24.10;17.15;;;2.60;99.90;;;;;;4989125;28;20264;-77
2021/01/03 10:49:59;;;;;;;22.50;15.43;;;2.60;99.90;;;;;;4983292;28;20033;-77
2021/01/03 10:52:25;;;;;;;23.42;15.68;;;2.70;99.90;;;;;;4971693;28;20038;-77
2021/01/03 10:54:50;;;;;;;24.10;16.15;;;2.50;99.90;;;;;;4987732;28;20058;-78
2021/01/03 10:57:16;;;;;;;24.13;16.90;;;2.60;99.90;;;;;;4970206;28;20393;-77
2021/01/03 10:59:42;;;;;;;26.40;15.55;;;2.70;99.90;;;;;;4989663;28;20034;-77
2021/01/03 11:02:07;;;;;;;22.85;15.23;;;2.70;99.90;;;;;;4969774;28;20062;-77
2021/01/03 11:04:33;;;;;;;23.23;16.00;;;2.70;99.90;;;;;;4986423;28;20049;-77
2021/01/03 11:07:01;;;;;;;24.52;16.08;;;2.70;99.90;;;;;;4987948;28;20038;-78
2021/01/03 11:09:32;;;;;;;21.95;14.50;;;2.80;99.90;;;;;;4983840;28;20018;-78
2021/01/03 11:12:07;;;;;;;22.60;15.15;;;2.70;99.90;;;;;;4985946;28;20056;-77
2021/01/03 11:14:33;;;;;;;23.25;14.60;;;2.90;99.90;;;;;;4986083;28;20081;-77
2021/01/03 11:16:59;;;;;;;23.70;14.68;;;2.80;99.90;;;;;;4985051;28;20465;-77
2021/01/03 11:19:25;;;;;;;23.15;15.13;;;2.70;99.90;;;;;;4984847;28;20478;-78
2021/01/03 11:21:59;;;;;;;23.45;14.35;;;2.70;99.90;;;;;;4971472;28;20038;-78
2021/01/03 11:24:24;;;;;;;23.88;15.88;;;2.70;99.90;;;;;;4987748;28;20537;-77
2021/01/03 11:26:51;;;;;;;22.73;14.95;;;2.80;99.90;;;;;;4970464;28;20386;-77
2021/01/03 11:29:20;;;;;;;25.92;17.50;;;2.90;99.90;;;;;;4981568;28;20049;-77
2021/01/03 11:31:48;;;;;;;24.85;16.60;;;2.90;99.90;;;;;;4957155;28;20416;-77
2021/01/03 11:34:18;;;;;;;26.02;16.00;;;2.90;99.90;;;;;;4955353;28;20034;-77
2021/01/03 11:36:56;;;;;;;23.77;15.50;;;2.90;99.90;;;;;;4989158;28;20497;-78
2021/01/03 11:39:23;;;;;;;21.20;15.13;;;2.90;99.90;;;;;;4969780;28;20026;-77
2021/01/03 11:41:51;;;;;;;21.60;15.43;;;3.00;99.90;;;;;;4961350;28;20035;-77
2021/01/03 11:44:18;;;;;;;24.50;15.20;;;2.90;99.90;;;;;;4969245;28;20026;-78
2021/01/03 11:46:45;;;;;;;20.80;13.88;;;2.90;99.90;;;;;;4980820;28;20113;-77
2021/01/03 11:49:11;;;;;;;23.42;15.43;;;2.90;99.90;;;;;;4984289;28;20374;-77
2021/01/03 11:51:37;;;;;;;21.45;14.73;;;2.90;99.90;;;;;;4981878;28;20046;-77
2021/01/03 11:54:03;;;;;;;21.55;14.93;;;2.90;99.90;;;;;;4978850;28;20050;-77
2021/01/03 11:56:28;;;;;;;21.23;13.55;;;2.90;99.90;;;;;;4984728;28;20049;-77
2021/01/03 11:58:54;;;;;;;22.17;15.32;;;2.80;99.90;;;;;;4968565;28;20034;-77
2021/01/03 12:01:24;;;;;;;22.70;15.02;;;2.90;99.90;;;;;;4984707;28;20231;-77
2021/01/03 12:03:51;;;;;;;20.02;12.98;;;2.90;99.90;;;;;;4981015;28;20019;-77
2021/01/03 12:06:19;;;;;;;20.38;14.88;;;2.80;99.90;;;;;;4982002;28;20043;-77
2021/01/03 12:08:45;;;;;;;20.73;12.95;;;2.80;99.90;;;;;;4983099;28;20027;-78
2021/01/03 12:11:17;;;;;;;19.17;13.00;;;2.90;99.90;;;;;;4983768;28;20121;-77
2021/01/03 12:13:51;;;;;;;20.13;13.07;;;2.90;99.90;;;;;;4981364;28;20053;-77
2021/01/03 12:16:27;;;;;;;22.20;14.32;;;3.00;99.90;;;;;;4982706;28;20097;-77
2021/01/03 12:18:53;;;;;;;18.85;12.95;;;2.90;99.90;;;;;;4970023;28;20104;-77
2021/01/03 12:21:29;;;;;;;19.55;13.80;;;3.00;99.90;;;;;;4984327;28;20084;-77
2021/01/03 12:23:55;;;;;;;21.23;13.43;;;3.10;99.90;;;;;;4981197;28;20772;-77
2021/01/03 12:26:21;;;;;;;19.92;14.18;;;3.10;99.90;;;;;;4979142;28;20045;-77
2021/01/03 12:28:48;;;;;;;24.65;15.15;;;3.00;99.90;;;;;;4970564;28;20061;-77
2021/01/03 12:31:15;;;;;;;20.55;13.90;;;3.00;99.90;;;;;;4989330;28;20043;-77
2021/01/03 12:33:40;;;;;;;19.23;12.88;;;3.10;99.90;;;;;;4981112;28;20030;-77
2021/01/03 12:36:07;;;;;;;20.20;13.07;;;3.00;99.90;;;;;;4984054;28;20409;-77
2021/01/03 12:38:33;;;;;;;21.33;14.57;;;2.80;99.90;;;;;;4984637;28;20026;-77
2021/01/03 12:40:59;;;;;;;20.80;13.43;;;2.90;99.90;;;;;;4977471;28;20081;-77
2021/01/03 12:43:25;;;;;;;24.30;15.55;;;2.90;99.90;;;;;;4975223;28;20031;-77
2021/01/03 12:45:50;;;;;;;19.52;13.70;;;2.80;99.90;;;;;;4959643;28;20050;-77
2021/01/03 12:48:16;;;;;;;19.95;13.50;;;2.80;99.90;;;;;;4958316;28;20486;-78
2021/01/03 12:50:41;;;;;;;22.58;13.95;;;2.90;99.90;;;;;;4982675;28;20070;-77
2021/01/03 12:53:07;;;;;;;22.35;15.68;;;2.80;99.90;;;;;;4985123;28;20027;-77
2021/01/03 12:55:33;;;;;;;22.20;14.48;;;2.90;99.90;;;;;;4978380;28;20498;-77
2021/01/03 12:57:59;;;;;;;21.80;14.55;;;2.90;99.90;;;;;;4980406;28;20030;-77
2021/01/03 13:00:24;;;;;;;19.70;13.45;;;3.00;99.90;;;;;;4967360;28;20035;-77